createdAt,value
2016-12-07T00:00:40.453Z,0
2016-12-07T00:01:40.660Z,0
2016-12-07T00:02:40.822Z,0
2016-12-07T00:03:41.006Z,0
2016-12-07T00:04:41.325Z,0
2016-12-07T00:05:41.210Z,0
2016-12-07T00:06:41.109Z,0
2016-12-07T00:07:41.856Z,0
2016-12-07T00:08:40.358Z,0
2016-12-07T00:09:41.749Z,0
2016-12-07T00:10:41.259Z,0
2016-12-07T00:11:41.148Z,0
2016-12-07T00:12:40.929Z,0
2016-12-07T00:13:41.332Z,0
2016-12-07T00:14:40.830Z,0
2016-12-07T00:15:40.471Z,0
2016-12-07T00:16:41.380Z,0
2016-12-07T00:17:41.019Z,0
2016-12-07T00:18:41.373Z,0
2016-12-07T00:19:41.193Z,0
2016-12-07T00:20:41.331Z,0
2016-12-07T00:21:40.970Z,0
2016-12-07T00:22:41.383Z,0
2016-12-07T00:23:42.186Z,0
2016-12-07T00:24:41.391Z,0
2016-12-07T00:25:40.936Z,0
2016-12-07T00:26:41.536Z,0
2016-12-07T00:27:40.743Z,0
2016-12-07T00:28:41.719Z,0
2016-12-07T00:29:41.005Z,0
2016-12-07T00:30:40.700Z,0
2016-12-07T00:31:40.989Z,0
2016-12-07T00:32:41.791Z,0
2016-12-07T00:33:40.868Z,0
2016-12-07T00:34:41.331Z,0
2016-12-07T00:35:41.781Z,0
2016-12-07T00:36:41.065Z,0
2016-12-07T00:37:41.203Z,0
2016-12-07T00:38:41.260Z,0
2016-12-07T00:39:40.665Z,0
2016-12-07T00:40:41.267Z,0
2016-12-07T00:41:42.181Z,0
2016-12-07T00:42:40.972Z,0
2016-12-07T00:43:41.491Z,0
2016-12-07T00:44:41.814Z,0
2016-12-07T00:45:41.468Z,0
2016-12-07T00:46:41.996Z,0
2016-12-07T00:47:41.312Z,0
2016-12-07T00:48:41.971Z,0
2016-12-07T00:49:41.496Z,0
2016-12-07T00:50:41.310Z,0
2016-12-07T00:51:42.136Z,0
2016-12-07T00:52:41.972Z,0
2016-12-07T00:53:41.209Z,0
2016-12-07T00:54:41.055Z,0
2016-12-07T00:55:41.842Z,0
2016-12-07T00:56:42.342Z,0
2016-12-07T00:57:40.886Z,0
2016-12-07T00:58:42.030Z,0
2016-12-07T00:59:42.527Z,0
2016-12-07T01:00:41.524Z,0
2016-12-07T01:01:41.229Z,0
2016-12-07T01:02:40.942Z,0
2016-12-07T01:03:41.652Z,0
2016-12-07T01:04:41.732Z,0
2016-12-07T01:05:41.772Z,0
2016-12-07T01:06:41.488Z,0
2016-12-07T01:07:41.670Z,0
2016-12-07T01:08:41.507Z,0
2016-12-07T01:09:41.113Z,0
2016-12-07T01:10:42.213Z,0
2016-12-07T01:11:41.877Z,0
2016-12-07T01:12:42.204Z,0
2016-12-07T01:13:41.973Z,0
2016-12-07T01:14:41.613Z,0
2016-12-07T01:15:41.775Z,0
2016-12-07T01:16:41.923Z,0
2016-12-07T01:17:42.045Z,0
2016-12-07T01:18:41.935Z,0
2016-12-07T01:19:41.727Z,0
2016-12-07T01:20:41.705Z,0
2016-12-07T01:21:42.732Z,0
2016-12-07T01:22:42.634Z,0
2016-12-07T01:23:42.104Z,0
2016-12-07T01:24:41.381Z,0
2016-12-07T01:25:42.531Z,0
2016-12-07T01:26:41.518Z,0
2016-12-07T01:27:41.716Z,0
2016-12-07T01:28:41.978Z,0
2016-12-07T01:29:42.128Z,0
2016-12-07T01:30:42.280Z,0
2016-12-07T01:31:42.253Z,0
2016-12-07T01:32:41.837Z,0
2016-12-07T01:33:41.814Z,0
2016-12-07T01:34:42.211Z,0
2016-12-07T01:35:42.006Z,0
2016-12-07T01:36:42.223Z,0
2016-12-07T01:37:42.638Z,0
2016-12-07T01:38:42.179Z,0
2016-12-07T01:39:43.108Z,0
2016-12-07T01:40:42.031Z,0
2016-12-07T01:41:42.874Z,0
2016-12-07T01:42:42.943Z,0
2016-12-07T01:43:43.745Z,0
2016-12-07T01:44:43.022Z,0
2016-12-07T01:45:42.629Z,0
2016-12-07T01:46:41.863Z,0
2016-12-07T01:47:41.485Z,0
2016-12-07T01:48:42.148Z,0
2016-12-07T01:49:42.927Z,0
2016-12-07T01:50:42.038Z,0
2016-12-07T01:51:42.738Z,0
2016-12-07T01:52:42.426Z,0
2016-12-07T01:53:42.733Z,0
2016-12-07T01:54:42.562Z,0
2016-12-07T01:55:42.726Z,0
2016-12-07T01:56:43.050Z,0
2016-12-07T01:57:41.446Z,0
2016-12-07T01:58:43.029Z,0
2016-12-07T01:59:42.968Z,0
2016-12-07T02:00:43.300Z,0
2016-12-07T02:01:42.496Z,0
2016-12-07T02:02:42.970Z,0
2016-12-07T02:03:42.682Z,0
2016-12-07T02:04:43.235Z,0
2016-12-07T02:05:43.132Z,0
2016-12-07T02:06:42.553Z,0
2016-12-07T02:07:43.257Z,0
2016-12-07T02:08:42.872Z,0
2016-12-07T02:09:41.881Z,0
2016-12-07T02:10:41.841Z,0
2016-12-07T02:11:43.094Z,0
2016-12-07T02:12:42.609Z,0
2016-12-07T02:13:43.182Z,0
2016-12-07T02:14:41.994Z,0
2016-12-07T02:15:41.992Z,0
2016-12-07T02:16:43.003Z,0
2016-12-07T02:17:43.204Z,0
2016-12-07T02:18:43.622Z,0
2016-12-07T02:19:42.515Z,0
2016-12-07T02:20:42.646Z,0
2016-12-07T02:21:42.720Z,0
2016-12-07T02:22:42.873Z,0
2016-12-07T02:23:42.733Z,0
2016-12-07T02:24:42.797Z,0
2016-12-07T02:25:43.100Z,0
2016-12-07T02:26:43.000Z,0
2016-12-07T02:27:43.154Z,0
2016-12-07T02:28:43.180Z,0
2016-12-07T02:29:43.096Z,0
2016-12-07T02:30:42.685Z,0
2016-12-07T02:31:43.426Z,0
2016-12-07T02:32:42.983Z,0
2016-12-07T02:33:43.023Z,0
2016-12-07T02:34:42.586Z,0
2016-12-07T02:35:42.831Z,0
2016-12-07T02:36:42.177Z,0
2016-12-07T02:37:42.981Z,0
2016-12-07T02:38:42.522Z,0
2016-12-07T02:39:43.321Z,0
2016-12-07T02:40:42.564Z,0
2016-12-07T02:41:42.841Z,0
2016-12-07T02:42:42.775Z,0
2016-12-07T02:43:42.603Z,0
2016-12-07T02:44:42.749Z,0
2016-12-07T02:45:42.458Z,0
2016-12-07T02:46:43.465Z,0
2016-12-07T02:47:43.051Z,0
2016-12-07T02:48:42.628Z,0
2016-12-07T02:49:42.291Z,0
2016-12-07T02:50:43.249Z,0
2016-12-07T02:51:42.593Z,0
2016-12-07T02:52:43.292Z,0
2016-12-07T02:53:42.649Z,0
2016-12-07T02:54:42.835Z,0
2016-12-07T02:55:43.010Z,0
2016-12-07T02:56:42.294Z,0
2016-12-07T02:57:42.582Z,0
2016-12-07T02:58:43.317Z,0
2016-12-07T02:59:42.786Z,0
2016-12-07T03:00:43.618Z,0
2016-12-07T03:01:43.680Z,0
2016-12-07T03:02:42.815Z,0
2016-12-07T03:03:43.084Z,0
2016-12-07T03:04:42.897Z,0
2016-12-07T03:05:42.858Z,0
2016-12-07T03:06:43.137Z,0
2016-12-07T03:07:43.468Z,0
2016-12-07T03:08:43.078Z,0
2016-12-07T03:09:43.738Z,0
2016-12-07T03:10:43.116Z,0
2016-12-07T03:11:42.995Z,0
2016-12-07T03:12:43.166Z,0
2016-12-07T03:13:42.694Z,0
2016-12-07T03:14:43.202Z,0
2016-12-07T03:15:42.887Z,0
2016-12-07T03:16:43.426Z,0
2016-12-07T03:17:44.518Z,0
2016-12-07T03:18:43.275Z,0
2016-12-07T03:19:43.239Z,0
2016-12-07T03:20:42.899Z,0
2016-12-07T03:21:43.683Z,0
2016-12-07T03:22:43.437Z,0
2016-12-07T03:23:44.024Z,0
2016-12-07T03:24:43.056Z,0
2016-12-07T03:25:43.669Z,0
2016-12-07T03:26:42.993Z,0
2016-12-07T03:27:43.009Z,0
2016-12-07T03:28:42.986Z,0
2016-12-07T03:29:43.738Z,0
2016-12-07T03:30:42.727Z,0
2016-12-07T03:31:44.107Z,0
2016-12-07T03:32:43.455Z,0
2016-12-07T03:33:44.926Z,0
2016-12-07T03:34:42.891Z,0
2016-12-07T03:35:43.925Z,0
2016-12-07T03:36:43.367Z,0
2016-12-07T03:37:43.845Z,0
2016-12-07T03:38:43.375Z,0
2016-12-07T03:39:43.295Z,0
2016-12-07T03:40:43.732Z,0
2016-12-07T03:41:44.110Z,0
2016-12-07T03:42:42.916Z,0
2016-12-07T03:43:42.915Z,0
2016-12-07T03:44:43.276Z,0
2016-12-07T03:45:43.838Z,0
2016-12-07T03:46:43.545Z,0
2016-12-07T03:47:43.380Z,0
2016-12-07T03:48:43.905Z,0
2016-12-07T03:49:42.855Z,0
2016-12-07T03:50:43.387Z,0
2016-12-07T03:51:43.591Z,0
2016-12-07T03:52:44.065Z,0
2016-12-07T03:53:43.676Z,0
2016-12-07T03:54:43.007Z,0
2016-12-07T03:55:44.481Z,0
2016-12-07T03:56:42.925Z,0
2016-12-07T03:57:43.981Z,0
2016-12-07T03:58:43.441Z,0
2016-12-07T03:59:44.005Z,0
2016-12-07T04:00:44.139Z,0
2016-12-07T04:01:44.477Z,0
2016-12-07T04:02:43.965Z,0
2016-12-07T04:03:43.509Z,0
2016-12-07T04:04:43.770Z,0
2016-12-07T04:05:43.736Z,0
2016-12-07T04:06:43.919Z,0
2016-12-07T04:07:44.004Z,0
2016-12-07T04:08:44.570Z,0
2016-12-07T04:09:44.374Z,0
2016-12-07T04:10:44.160Z,0
2016-12-07T04:11:43.903Z,0
2016-12-07T04:12:43.515Z,0
2016-12-07T04:13:43.504Z,0
2016-12-07T04:14:43.746Z,0
2016-12-07T04:15:43.667Z,0
2016-12-07T04:16:44.509Z,0
2016-12-07T04:17:43.832Z,0
2016-12-07T04:18:44.478Z,0
2016-12-07T04:19:43.728Z,0
2016-12-07T04:20:43.266Z,0
2016-12-07T04:21:43.769Z,0
2016-12-07T04:22:44.048Z,0
2016-12-07T04:23:43.847Z,0
2016-12-07T04:24:43.908Z,0
2016-12-07T04:25:44.198Z,0
2016-12-07T04:26:43.269Z,0
2016-12-07T04:27:43.850Z,0
2016-12-07T04:28:43.331Z,0
2016-12-07T04:29:43.753Z,0
2016-12-07T04:30:44.361Z,0
2016-12-07T04:31:43.775Z,0
2016-12-07T04:32:44.208Z,0
2016-12-07T04:33:44.414Z,0
2016-12-07T04:34:44.615Z,0
2016-12-07T04:35:44.386Z,0
2016-12-07T04:36:43.674Z,0
2016-12-07T04:37:43.661Z,0
2016-12-07T04:38:45.091Z,0
2016-12-07T04:39:44.057Z,0
2016-12-07T04:40:44.571Z,0
2016-12-07T04:41:43.700Z,0
2016-12-07T04:42:43.572Z,0
2016-12-07T04:43:43.687Z,0
2016-12-07T04:44:45.505Z,0
2016-12-07T04:45:43.973Z,0
2016-12-07T04:46:43.974Z,0
2016-12-07T04:47:43.520Z,0
2016-12-07T04:48:44.289Z,0
2016-12-07T04:49:45.188Z,0
2016-12-07T04:50:44.546Z,0
2016-12-07T04:51:44.265Z,0
2016-12-07T04:52:44.095Z,0
2016-12-07T04:53:44.159Z,0
2016-12-07T04:54:44.494Z,0
2016-12-07T04:55:43.768Z,0
2016-12-07T04:56:44.534Z,0
2016-12-07T04:57:43.960Z,0
2016-12-07T04:58:44.858Z,0
2016-12-07T04:59:45.095Z,0
2016-12-07T05:00:44.118Z,0
2016-12-07T05:01:43.785Z,0
2016-12-07T05:02:44.012Z,0
2016-12-07T05:03:44.608Z,0
2016-12-07T05:04:43.958Z,0
2016-12-07T05:05:44.620Z,0
2016-12-07T05:06:43.630Z,0
2016-12-07T05:07:43.591Z,0
2016-12-07T05:08:46.246Z,0
2016-12-07T05:09:44.944Z,0
2016-12-07T05:10:45.280Z,0
2016-12-07T05:11:45.759Z,0
2016-12-07T05:12:46.497Z,0
2016-12-07T05:13:44.460Z,0
2016-12-07T05:14:46.490Z,0
2016-12-07T05:15:45.715Z,0
2016-12-07T05:16:45.318Z,0
2016-12-07T05:17:45.111Z,0
2016-12-07T05:18:44.843Z,0
2016-12-07T05:19:45.849Z,0
2016-12-07T05:20:45.088Z,0
2016-12-07T05:21:45.745Z,0
2016-12-07T05:22:46.302Z,0
2016-12-07T05:23:45.181Z,0
2016-12-07T05:24:45.719Z,0
2016-12-07T05:25:46.462Z,0
2016-12-07T05:26:45.854Z,0
2016-12-07T05:27:45.689Z,0
2016-12-07T05:28:45.526Z,0
2016-12-07T05:29:46.373Z,0
2016-12-07T05:30:46.307Z,0
2016-12-07T05:31:45.291Z,0
2016-12-07T05:32:45.849Z,0
2016-12-07T05:33:45.886Z,0
2016-12-07T05:34:45.875Z,0
2016-12-07T05:35:45.795Z,0
2016-12-07T05:36:45.595Z,0
2016-12-07T05:37:45.049Z,0
2016-12-07T05:38:45.347Z,0
2016-12-07T05:39:45.782Z,0
2016-12-07T05:40:44.778Z,0
2016-12-07T05:41:45.139Z,0
2016-12-07T05:42:45.817Z,0
2016-12-07T05:43:46.039Z,0
2016-12-07T05:44:45.766Z,0
2016-12-07T05:45:45.764Z,0
2016-12-07T05:46:45.769Z,0
2016-12-07T05:47:45.014Z,0
2016-12-07T05:48:45.505Z,0
2016-12-07T05:49:45.829Z,0
2016-12-07T05:50:46.254Z,0
2016-12-07T05:51:46.645Z,0
2016-12-07T05:52:46.197Z,0
2016-12-07T05:53:46.796Z,0
2016-12-07T05:54:46.088Z,0
2016-12-07T05:55:45.629Z,0
2016-12-07T05:56:45.217Z,0
2016-12-07T05:57:46.076Z,0
2016-12-07T05:58:46.557Z,0
2016-12-07T05:59:46.357Z,0
2016-12-07T06:00:46.980Z,0
2016-12-07T06:01:45.835Z,0
2016-12-07T06:02:44.611Z,0
2016-12-07T06:03:46.106Z,0
2016-12-07T06:04:45.790Z,0
2016-12-07T06:05:46.696Z,0
2016-12-07T06:06:46.771Z,0
2016-12-07T06:07:45.484Z,0
2016-12-07T06:08:46.739Z,0
2016-12-07T06:09:45.647Z,0
2016-12-07T06:10:48.093Z,0
2016-12-07T06:11:46.206Z,0
2016-12-07T06:12:46.800Z,0
2016-12-07T06:13:46.088Z,0
2016-12-07T06:14:45.845Z,0
2016-12-07T06:15:45.581Z,0
2016-12-07T06:16:47.190Z,0
2016-12-07T06:17:46.404Z,0
2016-12-07T06:18:46.954Z,0
2016-12-07T06:19:47.181Z,0
2016-12-07T06:20:45.876Z,0
2016-12-07T06:21:44.555Z,0
2016-12-07T06:22:45.950Z,0
2016-12-07T06:23:45.777Z,0
2016-12-07T06:24:45.903Z,0
2016-12-07T06:25:46.030Z,0
2016-12-07T06:26:46.100Z,0
2016-12-07T06:27:45.631Z,0
2016-12-07T06:28:46.718Z,0
2016-12-07T06:29:46.378Z,0
2016-12-07T06:30:46.629Z,0
2016-12-07T06:31:45.032Z,0
2016-12-07T06:32:46.215Z,0
2016-12-07T06:33:45.932Z,0
2016-12-07T06:34:46.193Z,0
2016-12-07T06:35:45.450Z,0
2016-12-07T06:36:46.290Z,0
2016-12-07T06:37:45.324Z,0
2016-12-07T06:38:46.016Z,0
2016-12-07T06:39:46.596Z,0
2016-12-07T06:40:45.788Z,0
2016-12-07T06:41:45.571Z,0
2016-12-07T06:42:45.692Z,0
2016-12-07T06:43:45.960Z,0
2016-12-07T06:44:45.919Z,0
2016-12-07T06:45:46.483Z,0
2016-12-07T06:46:46.294Z,0
2016-12-07T06:47:45.551Z,0
2016-12-07T06:48:46.917Z,0
2016-12-07T06:49:46.092Z,0
2016-12-07T06:50:45.674Z,0
2016-12-07T06:51:46.534Z,0
2016-12-07T06:52:45.843Z,0
2016-12-07T06:53:46.254Z,0
2016-12-07T06:54:45.828Z,0
2016-12-07T06:55:46.697Z,0
2016-12-07T06:56:45.339Z,0
2016-12-07T06:57:45.826Z,0
2016-12-07T06:58:45.925Z,0
2016-12-07T06:59:46.785Z,0
2016-12-07T07:00:59.328Z,5
2016-12-07T07:01:45.316Z,5
2016-12-07T07:02:45.475Z,5
2016-12-07T07:03:45.307Z,5
2016-12-07T07:04:45.710Z,5
2016-12-07T07:05:46.273Z,5
2016-12-07T07:06:45.461Z,5
2016-12-07T07:07:46.171Z,5
2016-12-07T07:08:45.697Z,5
2016-12-07T07:09:46.415Z,5
2016-12-07T07:10:45.631Z,5
2016-12-07T07:11:46.770Z,5
2016-12-07T07:12:45.002Z,5
2016-12-07T07:13:46.165Z,5
2016-12-07T07:14:45.809Z,5
2016-12-07T07:15:46.679Z,10
2016-12-07T07:16:45.482Z,10
2016-12-07T07:17:46.798Z,10
2016-12-07T07:18:45.768Z,10
2016-12-07T07:19:45.542Z,10
2016-12-07T07:20:45.748Z,10
2016-12-07T07:21:45.516Z,10
2016-12-07T07:22:45.500Z,15
2016-12-07T07:23:47.308Z,15
2016-12-07T07:24:45.730Z,15
2016-12-07T07:25:46.517Z,15
2016-12-07T07:26:46.062Z,15
2016-12-07T07:27:46.539Z,20
2016-12-07T07:28:46.622Z,20
2016-12-07T07:29:46.538Z,20
2016-12-07T07:30:45.867Z,20
2016-12-07T07:31:46.354Z,25
2016-12-07T07:32:46.018Z,25
2016-12-07T07:33:46.019Z,25
2016-12-07T07:34:45.703Z,25
2016-12-07T07:35:46.179Z,30
2016-12-07T07:36:46.091Z,30
2016-12-07T07:37:46.333Z,30
2016-12-07T07:38:46.294Z,30
2016-12-07T07:39:46.070Z,35
2016-12-07T07:40:46.795Z,35
2016-12-07T07:41:46.371Z,35
2016-12-07T07:42:46.345Z,35
2016-12-07T07:43:46.496Z,35
2016-12-07T07:44:46.280Z,40
2016-12-07T07:45:46.224Z,40
2016-12-07T07:46:47.693Z,45
2016-12-07T07:47:46.796Z,45
2016-12-07T07:48:46.429Z,50
2016-12-07T07:49:48.784Z,55
2016-12-07T07:50:46.063Z,55
2016-12-07T07:51:46.996Z,60
2016-12-07T07:52:46.517Z,60
2016-12-07T07:53:46.255Z,65
2016-12-07T07:54:45.365Z,70
2016-12-07T07:55:46.777Z,75
2016-12-07T07:56:48.306Z,80
2016-12-07T07:57:47.599Z,80
2016-12-07T07:58:47.067Z,80
2016-12-07T07:59:47.879Z,80
2016-12-07T08:00:46.735Z,85
2016-12-07T08:01:47.262Z,85
2016-12-07T08:02:47.161Z,85
2016-12-07T08:03:47.250Z,85
2016-12-07T08:04:47.096Z,85
2016-12-07T08:05:47.283Z,85
2016-12-07T08:06:46.166Z,85
2016-12-07T08:07:46.981Z,85
2016-12-07T08:08:46.773Z,85
2016-12-07T08:09:46.705Z,85
2016-12-07T08:10:46.904Z,90
2016-12-07T08:11:46.523Z,90
2016-12-07T08:12:46.906Z,90
2016-12-07T08:13:47.171Z,90
2016-12-07T08:14:47.592Z,90
2016-12-07T08:15:47.355Z,90
2016-12-07T08:16:47.393Z,95
2016-12-07T08:17:46.677Z,95
2016-12-07T08:18:46.907Z,95
2016-12-07T08:19:47.443Z,95
2016-12-07T08:20:46.542Z,95
2016-12-07T08:21:47.049Z,95
2016-12-07T08:22:47.071Z,100
2016-12-07T08:23:46.973Z,100
2016-12-07T08:24:48.394Z,100
2016-12-07T08:25:47.640Z,105
2016-12-07T08:26:46.573Z,105
2016-12-07T08:27:46.436Z,105
2016-12-07T08:28:47.465Z,110
2016-12-07T08:29:47.212Z,105
2016-12-07T08:30:47.311Z,105
2016-12-07T08:31:46.992Z,105
2016-12-07T08:32:46.892Z,105
2016-12-07T08:33:46.343Z,110
2016-12-07T08:34:47.587Z,105
2016-12-07T08:35:47.477Z,110
2016-12-07T08:36:46.517Z,105
2016-12-07T08:37:47.929Z,110
2016-12-07T08:38:47.194Z,105
2016-12-07T08:39:46.293Z,105
2016-12-07T08:40:46.932Z,105
2016-12-07T08:41:46.921Z,105
2016-12-07T08:42:46.611Z,105
2016-12-07T08:43:46.387Z,100
2016-12-07T08:44:47.163Z,105
2016-12-07T08:45:46.771Z,110
2016-12-07T08:46:46.221Z,105
2016-12-07T08:47:47.570Z,105
2016-12-07T08:48:46.761Z,110
2016-12-07T08:49:46.332Z,110
2016-12-07T08:50:47.698Z,120
2016-12-07T08:51:47.325Z,120
2016-12-07T08:52:47.081Z,125
2016-12-07T08:53:46.540Z,125
2016-12-07T08:54:47.770Z,130
2016-12-07T08:55:46.540Z,165
2016-12-07T08:56:46.395Z,185
2016-12-07T08:57:46.739Z,200
2016-12-07T08:58:46.917Z,205
2016-12-07T08:59:46.900Z,210
2016-12-07T09:00:46.684Z,215
2016-12-07T09:01:46.680Z,230
2016-12-07T09:02:46.644Z,260
2016-12-07T09:03:46.285Z,270
2016-12-07T09:04:46.416Z,265
2016-12-07T09:05:46.943Z,275
2016-12-07T09:06:46.867Z,285
2016-12-07T09:07:47.439Z,315
2016-12-07T09:08:47.231Z,305
2016-12-07T09:09:47.555Z,295
2016-12-07T09:10:47.220Z,315
2016-12-07T09:11:46.708Z,315
2016-12-07T09:12:46.595Z,300
2016-12-07T09:13:47.414Z,285
2016-12-07T09:14:47.057Z,295
2016-12-07T09:15:47.376Z,300
2016-12-07T09:16:47.429Z,325
2016-12-07T09:17:46.872Z,285
2016-12-07T09:18:47.521Z,260
2016-12-07T09:19:46.955Z,245
2016-12-07T09:20:46.952Z,230
2016-12-07T09:21:47.015Z,230
2016-12-07T09:22:47.423Z,220
2016-12-07T09:23:47.971Z,200
2016-12-07T09:24:46.737Z,200
2016-12-07T09:25:47.173Z,195
2016-12-07T09:26:47.115Z,190
2016-12-07T09:27:47.077Z,190
2016-12-07T09:28:47.479Z,185
2016-12-07T09:29:47.194Z,200
2016-12-07T09:30:47.561Z,195
2016-12-07T09:31:47.439Z,190
2016-12-07T09:32:47.745Z,175
2016-12-07T09:33:46.892Z,170
2016-12-07T09:34:46.783Z,185
2016-12-07T09:35:47.845Z,190
2016-12-07T09:36:47.884Z,170
2016-12-07T09:37:47.111Z,170
2016-12-07T09:38:47.732Z,170
2016-12-07T09:39:48.848Z,170
2016-12-07T09:40:47.363Z,170
2016-12-07T09:41:47.508Z,165
2016-12-07T09:42:47.164Z,185
2016-12-07T09:43:47.243Z,210
2016-12-07T09:44:47.784Z,225
2016-12-07T09:45:46.697Z,230
2016-12-07T09:46:47.979Z,230
2016-12-07T09:47:47.344Z,225
2016-12-07T09:48:47.172Z,235
2016-12-07T09:49:47.282Z,220
2016-12-07T09:50:46.588Z,215
2016-12-07T09:51:47.523Z,210
2016-12-07T09:52:48.033Z,210
2016-12-07T09:53:46.713Z,230
2016-12-07T09:54:47.057Z,245
2016-12-07T09:55:47.624Z,250
2016-12-07T09:56:47.632Z,245
2016-12-07T09:57:47.443Z,230
2016-12-07T09:58:48.235Z,230
2016-12-07T09:59:47.538Z,225
2016-12-07T10:00:49.067Z,230
2016-12-07T10:01:47.626Z,230
2016-12-07T10:02:48.315Z,240
2016-12-07T10:03:47.398Z,245
2016-12-07T10:04:47.116Z,240
2016-12-07T10:05:47.216Z,250
2016-12-07T10:06:47.699Z,265
2016-12-07T10:07:47.856Z,265
2016-12-07T10:08:47.636Z,280
2016-12-07T10:09:47.724Z,280
2016-12-07T10:10:47.284Z,285
2016-12-07T10:11:48.492Z,305
2016-12-07T10:12:48.466Z,310
2016-12-07T10:13:47.416Z,315
2016-12-07T10:14:47.453Z,325
2016-12-07T10:15:47.426Z,315
2016-12-07T10:16:48.047Z,355
2016-12-07T10:17:47.862Z,335
2016-12-07T10:18:47.512Z,340
2016-12-07T10:19:47.397Z,325
2016-12-07T10:20:47.521Z,325
2016-12-07T10:21:48.504Z,325
2016-12-07T10:22:47.834Z,325
2016-12-07T10:23:46.974Z,310
2016-12-07T10:24:47.759Z,310
2016-12-07T10:25:48.937Z,315
2016-12-07T10:26:48.283Z,305
2016-12-07T10:27:48.050Z,320
2016-12-07T10:28:47.631Z,330
2016-12-07T10:29:47.301Z,330
2016-12-07T10:30:48.269Z,340
2016-12-07T10:31:47.574Z,355
2016-12-07T10:32:47.503Z,355
2016-12-07T10:33:47.843Z,350
2016-12-07T10:34:47.774Z,360
2016-12-07T10:35:48.358Z,375
2016-12-07T10:36:47.762Z,365
2016-12-07T10:37:47.760Z,370
2016-12-07T10:38:47.339Z,375
2016-12-07T10:39:48.791Z,370
2016-12-07T10:40:48.143Z,365
2016-12-07T10:41:47.851Z,360
2016-12-07T10:42:47.587Z,340
2016-12-07T10:43:47.567Z,330
2016-12-07T10:44:48.464Z,330
2016-12-07T10:45:47.792Z,320
2016-12-07T10:46:48.134Z,305
2016-12-07T10:47:48.434Z,315
2016-12-07T10:48:48.058Z,315
2016-12-07T10:49:47.679Z,300
2016-12-07T10:50:48.439Z,305
2016-12-07T10:51:48.035Z,300
2016-12-07T10:52:48.421Z,310
2016-12-07T10:53:48.100Z,315
2016-12-07T10:54:48.992Z,300
2016-12-07T10:55:47.840Z,310
2016-12-07T10:56:47.850Z,310
2016-12-07T10:57:48.154Z,310
2016-12-07T10:58:47.986Z,310
2016-12-07T10:59:48.442Z,320
2016-12-07T11:00:47.761Z,320
2016-12-07T11:01:48.620Z,330
2016-12-07T11:02:48.804Z,330
2016-12-07T11:03:48.427Z,335
2016-12-07T11:04:48.062Z,340
2016-12-07T11:05:47.946Z,340
2016-12-07T11:06:48.595Z,350
2016-12-07T11:07:48.337Z,360
2016-12-07T11:08:48.181Z,355
2016-12-07T11:09:48.200Z,360
2016-12-07T11:10:48.607Z,370
2016-12-07T11:11:47.908Z,390
2016-12-07T11:12:48.242Z,405
2016-12-07T11:13:48.290Z,395
2016-12-07T11:14:48.006Z,370
2016-12-07T11:15:47.803Z,365
2016-12-07T11:16:47.931Z,370
2016-12-07T11:17:47.984Z,355
2016-12-07T11:18:49.326Z,340
2016-12-07T11:19:48.962Z,335
2016-12-07T11:20:48.878Z,335
2016-12-07T11:21:49.148Z,335
2016-12-07T11:22:48.275Z,350
2016-12-07T11:23:49.034Z,360
2016-12-07T11:24:48.496Z,360
2016-12-07T11:25:48.182Z,370
2016-12-07T11:26:48.906Z,365
2016-12-07T11:27:48.811Z,360
2016-12-07T11:28:48.430Z,360
2016-12-07T11:29:47.685Z,350
2016-12-07T11:30:48.874Z,350
2016-12-07T11:31:48.573Z,350
2016-12-07T11:32:49.081Z,350
2016-12-07T11:33:49.359Z,360
2016-12-07T11:34:48.807Z,365
2016-12-07T11:35:49.194Z,365
2016-12-07T11:36:48.222Z,360
2016-12-07T11:37:49.018Z,360
2016-12-07T11:38:49.799Z,365
2016-12-07T11:39:47.996Z,360
2016-12-07T11:40:48.473Z,345
2016-12-07T11:41:48.513Z,340
2016-12-07T11:42:49.047Z,330
2016-12-07T11:43:48.933Z,325
2016-12-07T11:44:48.032Z,330
2016-12-07T11:45:47.946Z,340
2016-12-07T11:46:48.619Z,345
2016-12-07T11:47:48.968Z,355
2016-12-07T11:48:49.202Z,355
2016-12-07T11:49:48.832Z,355
2016-12-07T11:50:49.229Z,350
2016-12-07T11:51:49.029Z,340
2016-12-07T11:52:48.563Z,325
2016-12-07T11:53:49.030Z,305
2016-12-07T11:54:47.952Z,285
2016-12-07T11:55:48.482Z,280
2016-12-07T11:56:49.141Z,265
2016-12-07T11:57:48.552Z,260
2016-12-07T11:58:48.508Z,255
2016-12-07T11:59:49.867Z,255
2016-12-07T12:00:49.106Z,260
2016-12-07T12:01:49.065Z,265
2016-12-07T12:02:49.435Z,270
2016-12-07T12:03:48.880Z,275
2016-12-07T12:04:49.162Z,275
2016-12-07T12:05:48.298Z,280
2016-12-07T12:06:49.120Z,285
2016-12-07T12:07:48.957Z,285
2016-12-07T12:08:49.239Z,285
2016-12-07T12:09:49.797Z,290
2016-12-07T12:10:48.675Z,290
2016-12-07T12:11:48.671Z,295
2016-12-07T12:12:49.636Z,290
2016-12-07T12:13:48.766Z,285
2016-12-07T12:14:49.335Z,280
2016-12-07T12:15:49.771Z,275
2016-12-07T12:16:49.147Z,275
2016-12-07T12:17:50.331Z,270
2016-12-07T12:18:49.292Z,275
2016-12-07T12:19:49.352Z,290
2016-12-07T12:20:49.136Z,295
2016-12-07T12:21:48.879Z,310
2016-12-07T12:22:49.290Z,325
2016-12-07T12:23:49.483Z,335
2016-12-07T12:24:48.993Z,345
2016-12-07T12:25:49.312Z,355
2016-12-07T12:26:49.582Z,365
2016-12-07T12:27:50.096Z,375
2016-12-07T12:28:49.563Z,385
2016-12-07T12:29:49.138Z,390
2016-12-07T12:30:50.004Z,395
2016-12-07T12:31:49.777Z,390
2016-12-07T12:32:49.188Z,380
2016-12-07T12:33:49.153Z,375
2016-12-07T12:34:49.372Z,365
2016-12-07T12:35:49.446Z,360
2016-12-07T12:36:49.149Z,350
2016-12-07T12:37:49.690Z,345
2016-12-07T12:38:49.693Z,340
2016-12-07T12:39:49.306Z,340
2016-12-07T12:40:49.103Z,340
2016-12-07T12:41:49.384Z,345
2016-12-07T12:42:49.887Z,350
2016-12-07T12:43:50.008Z,345
2016-12-07T12:44:49.066Z,345
2016-12-07T12:45:49.501Z,340
2016-12-07T12:46:50.101Z,330
2016-12-07T12:47:49.938Z,320
2016-12-07T12:48:49.465Z,315
2016-12-07T12:49:50.029Z,300
2016-12-07T12:50:49.336Z,295
2016-12-07T12:51:49.362Z,280
2016-12-07T12:52:49.408Z,280
2016-12-07T12:53:49.874Z,280
2016-12-07T12:54:50.117Z,270
2016-12-07T12:55:49.964Z,270
2016-12-07T12:56:49.495Z,265
2016-12-07T12:57:49.825Z,265
2016-12-07T12:58:49.332Z,260
2016-12-07T12:59:49.292Z,255
2016-12-07T13:00:49.926Z,245
2016-12-07T13:01:50.651Z,245
2016-12-07T13:02:50.052Z,235
2016-12-07T13:03:49.449Z,225
2016-12-07T13:04:49.606Z,220
2016-12-07T13:05:49.362Z,210
2016-12-07T13:06:50.051Z,210
2016-12-07T13:07:49.927Z,200
2016-12-07T13:08:50.788Z,200
2016-12-07T13:09:49.800Z,195
2016-12-07T13:10:50.157Z,190
2016-12-07T13:11:49.953Z,185
2016-12-07T13:12:50.130Z,180
2016-12-07T13:13:50.874Z,175
2016-12-07T13:14:49.646Z,170
2016-12-07T13:15:49.715Z,165
2016-12-07T13:16:50.384Z,160
2016-12-07T13:17:49.908Z,150
2016-12-07T13:18:49.608Z,145
2016-12-07T13:19:49.789Z,140
2016-12-07T13:20:49.223Z,135
2016-12-07T13:21:49.067Z,130
2016-12-07T13:22:49.083Z,130
2016-12-07T13:23:50.579Z,130
2016-12-07T13:24:49.604Z,130
2016-12-07T13:25:49.568Z,130
2016-12-07T13:26:49.653Z,130
2016-12-07T13:27:50.191Z,130
2016-12-07T13:28:49.925Z,135
2016-12-07T13:29:50.380Z,140
2016-12-07T13:30:50.307Z,150
2016-12-07T13:31:49.572Z,160
2016-12-07T13:32:49.545Z,165
2016-12-07T13:33:50.518Z,175
2016-12-07T13:34:50.336Z,180
2016-12-07T13:35:50.264Z,185
2016-12-07T13:36:50.749Z,180
2016-12-07T13:37:50.031Z,180
2016-12-07T13:38:50.453Z,175
2016-12-07T13:39:50.762Z,175
2016-12-07T13:40:50.566Z,170
2016-12-07T13:41:50.269Z,170
2016-12-07T13:42:51.693Z,170
2016-12-07T13:43:49.799Z,165
2016-12-07T13:44:50.603Z,165
2016-12-07T13:45:50.236Z,160
2016-12-07T13:46:50.644Z,165
2016-12-07T13:47:50.240Z,165
2016-12-07T13:48:51.624Z,160
2016-12-07T13:49:50.727Z,160
2016-12-07T13:50:50.365Z,160
2016-12-07T13:51:49.981Z,155
2016-12-07T13:52:51.385Z,150
2016-12-07T13:53:50.280Z,140
2016-12-07T13:54:51.053Z,135
2016-12-07T13:55:49.758Z,130
2016-12-07T13:56:50.274Z,130
2016-12-07T13:57:50.544Z,125
2016-12-07T13:58:50.227Z,125
2016-12-07T13:59:50.077Z,115
2016-12-07T14:00:50.581Z,115
2016-12-07T14:01:50.673Z,115
2016-12-07T14:02:50.730Z,110
2016-12-07T14:03:51.164Z,110
2016-12-07T14:04:50.446Z,105
2016-12-07T14:05:50.388Z,105
2016-12-07T14:06:50.392Z,100
2016-12-07T14:07:50.618Z,100
2016-12-07T14:08:50.295Z,95
2016-12-07T14:09:50.487Z,90
2016-12-07T14:10:50.411Z,85
2016-12-07T14:11:50.337Z,85
2016-12-07T14:12:51.242Z,85
2016-12-07T14:13:50.753Z,80
2016-12-07T14:14:51.528Z,75
2016-12-07T14:15:50.226Z,75
2016-12-07T14:16:50.300Z,70
2016-12-07T14:17:49.941Z,70
2016-12-07T14:18:50.321Z,70